Etusivu
METAR-TAF:

METAR-TAF

Lentoasemat :

Vannes, Ranska

Leveyspiiri: 47-43-19N, Pituuspiiri: 2-43-41W, korkeus merenpinnasta: 130 m

Tämänhetkinen sää

Tämä raportti tehtiin 35 minuuttia sitten, kello 07.00 UTC
Tuuli 8 kn kaakosta
Lämpötila 3°C
Kosteus 81%
Ilmanpaine 1006 hPa
Näkyvyys 10 km tai enemmän
Muutamia pilviä 4900 ft:n korkeudessa

METAR: LFRV 210700Z AUTO 13008KT 9999 FEW049 03/M00 Q1006

Aika: 08:35 (07:35 UTC)


TAF: puuttuu

Säähavainnot ja -ennusteet yli 4000 lentoasemalta (METAR- ja TAF-raportit).

Käytössä olevat sääasemat on merkitty karttaan keltaisilla ja punaisilla pisteillä.

Aseta hiiri pisteen päälle nähdäksesi sääaseman nimen.

Klikkaa sitten nähdäksesi säähavainnot ja -ennusteet.

Kartan vaihtaminen: klikkaa mustalla rastilla varustettuja vihreitä pisteitä, niin voit zoomata sisään; viivalla varustettua vihreää pistettä, niin voit zoomata ulos tai vihreitä nuolia, niin pääset viereisille kartoille.


METAR-TAF: